createdAt,value
2023-04-13T00:01:55.078Z,99549.77
2023-04-13T00:04:27.831Z,99547.39
2023-04-13T00:07:01.929Z,99557.16
2023-04-13T00:09:34.775Z,99555.64
2023-04-13T00:12:06.840Z,99561.05
2023-04-13T00:14:39.400Z,99558.80
2023-04-13T00:17:11.729Z,99553.71
2023-04-13T00:19:45.616Z,99550.51
2023-04-13T00:22:18.177Z,99550.76
2023-04-13T00:24:50.245Z,99554.57
2023-04-13T00:27:22.889Z,99556.61
2023-04-13T00:29:56.478Z,99559.48
2023-04-13T00:32:28.539Z,99555.34
2023-04-13T00:35:00.644Z,99559.17
2023-04-13T00:37:34.374Z,99557.73
2023-04-13T00:40:08.635Z,99562.28
2023-04-13T00:42:43.789Z,99564.16
2023-04-13T00:45:16.808Z,99570.50
2023-04-13T00:47:52.053Z,99571.52
2023-04-13T00:50:24.617Z,99574.27
2023-04-13T00:52:58.154Z,99569.30
2023-04-13T00:55:30.278Z,99571.22
2023-04-13T00:58:02.348Z,99573.17
2023-04-13T01:00:34.392Z,99566.55
2023-04-13T01:03:07.339Z,99563.19
2023-04-13T01:05:42.451Z,99569.44
2023-04-13T01:08:17.601Z,99575.67
2023-04-13T01:11:06.001Z,99570.77
2023-04-13T01:13:41.384Z,99564.93
2023-04-13T01:16:23.440Z,99569.39
2023-04-13T01:18:56.072Z,99580.03
2023-04-13T01:21:30.869Z,99581.90
2023-04-13T01:24:40.717Z,99582.83
2023-04-13T01:27:20.308Z,99574.19
2023-04-13T01:29:52.676Z,99579.43
2023-04-13T01:32:25.090Z,99574.37
2023-04-13T01:34:57.314Z,99575.35
2023-04-13T01:37:30.049Z,99574.60
2023-04-13T01:40:02.267Z,99569.52
2023-04-13T01:42:35.104Z,99566.97
2023-04-13T01:45:10.653Z,99579.24
2023-04-13T01:47:45.508Z,99572.47
2023-04-13T01:50:26.018Z,99567.23
2023-04-13T01:53:04.352Z,99566.37
2023-04-13T01:55:38.465Z,99568.23
2023-04-13T01:58:13.306Z,99568.39
2023-04-13T02:00:47.883Z,99573.63
2023-04-13T02:03:21.918Z,99575.47
2023-04-13T02:05:54.575Z,99579.95
2023-04-13T02:08:26.907Z,99573.02
2023-04-13T02:10:59.002Z,99574.03
2023-04-13T02:13:31.865Z,99575.87
2023-04-13T02:16:07.373Z,99575.01
2023-04-13T02:18:39.588Z,99583.88
2023-04-13T02:21:12.288Z,99574.33
2023-04-13T02:23:44.868Z,99579.50
2023-04-13T02:26:18.277Z,99575.19
2023-04-13T02:28:52.630Z,99585.67
2023-04-13T02:31:24.676Z,99579.57
2023-04-13T02:33:57.023Z,99585.74
2023-04-13T02:36:29.633Z,99583.05
2023-04-13T02:39:06.473Z,99581.33
2023-04-13T02:41:40.332Z,99577.88
2023-04-13T02:44:13.155Z,99586.42
2023-04-13T02:46:46.332Z,99581.78
2023-04-13T02:49:19.786Z,99588.01
2023-04-13T02:51:53.412Z,99580.63
2023-04-13T02:54:27.271Z,99581.34
2023-04-13T02:57:01.886Z,99578.46
2023-04-13T02:59:35.568Z,99579.92
2023-04-13T03:02:10.065Z,99583.77
2023-04-13T03:04:42.816Z,99583.77
2023-04-13T03:07:17.302Z,99587.06
2023-04-13T03:09:52.606Z,99578.19
2023-04-13T03:12:26.700Z,99592.05
2023-04-13T03:15:00.445Z,99590.20
2023-04-13T03:17:32.587Z,99588.27
2023-04-13T03:20:06.091Z,99585.69
2023-04-13T03:22:39.970Z,99594.80
2023-04-13T03:25:12.755Z,99592.78
2023-04-13T03:27:44.994Z,99595.09
2023-04-13T03:30:18.901Z,99593.81
2023-04-13T03:32:58.390Z,99596.89
2023-04-13T03:35:32.317Z,99603.59
2023-04-13T03:38:05.721Z,99590.98
2023-04-13T03:40:39.552Z,99596.66
2023-04-13T03:43:12.065Z,99600.64
2023-04-13T03:45:45.971Z,99602.09
2023-04-13T03:48:19.735Z,99593.70
2023-04-13T03:50:51.951Z,99600.11
2023-04-13T03:53:25.734Z,99592.56
2023-04-13T03:55:59.948Z,99598.06
2023-04-13T03:58:32.181Z,99605.33
2023-04-13T04:01:04.247Z,99596.17
2023-04-13T04:03:38.683Z,99601.05
2023-04-13T04:06:12.963Z,99600.59
2023-04-13T04:08:48.410Z,99597.63
2023-04-13T04:11:33.961Z,99598.97
2023-04-13T04:14:07.205Z,99600.27
2023-04-13T04:16:39.800Z,99606.78
2023-04-13T04:19:13.972Z,99603.69
2023-04-13T04:21:47.268Z,99603.90
2023-04-13T04:24:23.826Z,99606.95
2023-04-13T04:26:59.030Z,99606.38
2023-04-13T04:29:37.458Z,99600.55
2023-04-13T04:32:22.125Z,99598.21
2023-04-13T04:34:55.016Z,99597.45
2023-04-13T04:37:28.672Z,99592.38
2023-04-13T04:40:13.291Z,99597.70
2023-04-13T04:42:46.219Z,99597.87
2023-04-13T04:45:20.925Z,99603.30
2023-04-13T04:47:56.203Z,99605.44
2023-04-13T04:50:30.286Z,99607.76
2023-04-13T04:53:07.360Z,99605.61
2023-04-13T04:55:40.980Z,99607.09
2023-04-13T04:58:14.825Z,99610.81
2023-04-13T05:00:49.919Z,99601.47
2023-04-13T05:03:23.088Z,99606.32
2023-04-13T05:05:56.142Z,99606.06
2023-04-13T05:08:29.760Z,99614.42
2023-04-13T05:11:01.972Z,99614.07
2023-04-13T05:13:34.653Z,99611.78
2023-04-13T05:16:20.235Z,99602.30
2023-04-13T05:18:53.699Z,99600.33
2023-04-13T05:21:34.027Z,99600.80
2023-04-13T05:24:07.289Z,99608.09
2023-04-13T05:26:40.446Z,99594.09
2023-04-13T05:29:13.409Z,99590.63
2023-04-13T05:31:47.306Z,99600.02
2023-04-13T05:34:19.750Z,99597.30
2023-04-13T05:36:53.836Z,99595.30
2023-04-13T05:39:27.246Z,99587.03
2023-04-13T05:41:59.379Z,99586.03
2023-04-13T05:44:32.166Z,99584.98
2023-04-13T05:47:04.335Z,99587.61
2023-04-13T05:49:38.291Z,99584.80
2023-04-13T05:52:10.719Z,99585.09
2023-04-13T05:54:50.388Z,99581.87
2023-04-13T05:57:24.235Z,99590.73
2023-04-13T05:59:57.352Z,99580.08
2023-04-13T06:02:32.338Z,99581.91
2023-04-13T06:05:05.483Z,99586.06
2023-04-13T06:07:39.101Z,99581.30
2023-04-13T06:10:12.480Z,99576.45
2023-04-13T06:12:45.054Z,99568.07
2023-04-13T06:15:18.517Z,99569.12
2023-04-13T06:17:54.349Z,99570.70
2023-04-13T06:20:26.857Z,99577.16
2023-04-13T06:23:01.142Z,99565.85
2023-04-13T06:25:34.778Z,99563.90
2023-04-13T06:28:08.020Z,99560.13
2023-04-13T06:30:42.110Z,99559.27
2023-04-13T06:33:16.096Z,99554.76
2023-04-13T06:35:48.635Z,99562.13
2023-04-13T06:38:20.896Z,99567.20
2023-04-13T06:41:04.784Z,99563.16
2023-04-13T06:43:38.754Z,99557.95
2023-04-13T06:46:19.872Z,99560.93
2023-04-13T06:48:54.719Z,99565.13
2023-04-13T06:51:31.006Z,99561.39
2023-04-13T06:54:04.505Z,99560.53
2023-04-13T06:56:36.729Z,99557.16
2023-04-13T06:59:09.317Z,99555.93
2023-04-13T07:01:41.792Z,99563.53
2023-04-13T07:04:14.132Z,99564.93
2023-04-13T07:06:48.307Z,99560.64
2023-04-13T07:09:20.726Z,99565.34
2023-04-13T07:11:53.027Z,99566.20
2023-04-13T07:14:25.643Z,99552.80
2023-04-13T07:16:57.988Z,99563.51
2023-04-13T07:19:32.373Z,99563.27
2023-04-13T07:22:05.064Z,99574.25
2023-04-13T07:24:38.232Z,99573.95
2023-04-13T07:27:12.344Z,99580.38
2023-04-13T07:29:44.593Z,99588.19
2023-04-13T07:32:20.876Z,99576.28
2023-04-13T07:34:52.088Z,99592.91
2023-04-13T07:37:24.420Z,99583.12
2023-04-13T07:39:56.816Z,99577.24
2023-04-13T07:42:29.183Z,99582.27
2023-04-13T07:45:02.914Z,99579.88
2023-04-13T07:47:35.470Z,99578.20
2023-04-13T07:50:10.595Z,99579.15
2023-04-13T07:52:43.429Z,99578.33
2023-04-13T07:55:15.703Z,99574.69
2023-04-13T07:57:49.667Z,99576.88
2023-04-13T08:00:23.328Z,99578.00
2023-04-13T08:02:58.773Z,99571.95
2023-04-13T08:05:32.240Z,99569.17
2023-04-13T08:08:04.989Z,99574.09
2023-04-13T08:10:37.472Z,99571.20
2023-04-13T08:13:09.970Z,99565.78
2023-04-13T08:15:42.391Z,99581.62
2023-04-13T08:18:15.051Z,99573.52
2023-04-13T08:20:49.413Z,99575.76
2023-04-13T08:23:23.295Z,99565.54
2023-04-13T08:25:56.246Z,99565.02
2023-04-13T08:28:30.356Z,99565.02
2023-04-13T08:31:03.325Z,99559.16
2023-04-13T08:33:36.261Z,99570.44
2023-04-13T08:36:10.267Z,99552.02
2023-04-13T08:38:43.368Z,99553.20
2023-04-13T08:41:18.635Z,99549.73
2023-04-13T08:43:54.906Z,99546.34
2023-04-13T08:46:28.964Z,99541.90
2023-04-13T08:49:04.236Z,99548.65
2023-04-13T08:51:38.557Z,99545.97
2023-04-13T08:54:12.168Z,99554.34
2023-04-13T08:56:47.324Z,99541.94
2023-04-13T08:59:23.666Z,99543.66
2023-04-13T09:01:56.808Z,99537.98
2023-04-13T09:04:32.805Z,99535.45
2023-04-13T09:07:08.192Z,99535.47
2023-04-13T09:09:46.197Z,99540.27
2023-04-13T09:12:18.529Z,99543.02
2023-04-13T09:14:51.376Z,99532.80
2023-04-13T09:17:35.619Z,99551.35
2023-04-13T09:20:22.084Z,99539.77
2023-04-13T09:22:54.669Z,99554.00
2023-04-13T09:25:28.696Z,99542.98
2023-04-13T09:28:01.230Z,99542.02
2023-04-13T09:30:33.607Z,99542.48
2023-04-13T09:33:10.759Z,99549.95
2023-04-13T09:35:43.423Z,99555.17
2023-04-13T09:38:17.456Z,99547.48
2023-04-13T09:40:50.441Z,99550.69
2023-04-13T09:43:22.941Z,99546.89
2023-04-13T09:45:55.905Z,99554.18
2023-04-13T09:48:28.914Z,99548.10
2023-04-13T09:51:07.225Z,99542.48
2023-04-13T09:53:46.829Z,99537.58
2023-04-13T09:56:20.640Z,99538.67
2023-04-13T09:58:53.465Z,99545.67
2023-04-13T10:01:25.711Z,99548.07
2023-04-13T10:03:58.498Z,99551.44
2023-04-13T10:06:32.269Z,99546.25
2023-04-13T10:09:04.336Z,99540.34
2023-04-13T10:11:39.874Z,99532.83
2023-04-13T10:14:15.104Z,99531.77
2023-04-13T10:16:50.595Z,99537.58
2023-04-13T10:19:28.358Z,99527.22
2023-04-13T10:22:01.557Z,99525.71
2023-04-13T10:24:34.668Z,99532.83
2023-04-13T10:27:17.994Z,99530.01
2023-04-13T10:29:50.541Z,99527.48
2023-04-13T10:32:25.127Z,99515.95
2023-04-13T10:34:58.284Z,99525.41
2023-04-13T10:37:30.535Z,99526.38
2023-04-13T10:40:12.496Z,99514.03
2023-04-13T10:42:53.099Z,99520.78
2023-04-13T10:45:26.566Z,99517.33
2023-04-13T10:47:58.789Z,99520.25
2023-04-13T10:50:31.269Z,99532.47
2023-04-13T10:53:05.482Z,99516.65
2023-04-13T10:55:37.747Z,99522.59
2023-04-13T10:58:18.535Z,99507.12
2023-04-13T11:00:52.370Z,99500.92
2023-04-13T11:03:28.330Z,99505.39
2023-04-13T11:06:02.887Z,99503.47
2023-04-13T11:08:37.462Z,99498.80
2023-04-13T11:11:14.925Z,99507.97
2023-04-13T11:13:47.461Z,99510.28
2023-04-13T11:16:19.691Z,99520.97
2023-04-13T11:19:02.846Z,99513.10
2023-04-13T11:21:35.807Z,99509.94
2023-04-13T11:24:08.590Z,99505.05
2023-04-13T11:26:42.980Z,99507.82
2023-04-13T11:29:25.167Z,99515.00
2023-04-13T11:31:57.782Z,99507.56
2023-04-13T11:34:30.125Z,99511.84
2023-04-13T11:37:07.385Z,99517.92
2023-04-13T11:39:42.488Z,99516.45
2023-04-13T11:42:14.993Z,99509.45
2023-04-13T11:44:47.464Z,99511.80
2023-04-13T11:47:20.102Z,99513.30
2023-04-13T11:49:52.811Z,99518.69
2023-04-13T11:52:26.283Z,99512.15
2023-04-13T11:55:07.704Z,99510.48
2023-04-13T11:57:37.176Z,99518.83
2023-04-13T12:00:22.518Z,99516.82
2023-04-13T12:05:34.440Z,99510.72
2023-04-13T12:08:08.692Z,99510.36
2023-04-13T12:10:49.355Z,99505.91
2023-04-13T12:18:28.333Z,99512.95
2023-04-13T12:20:58.704Z,99502.33
2023-04-13T12:23:31.056Z,99501.09
2023-04-13T12:26:33.156Z,99490.53
2023-04-13T12:28:43.428Z,99485.30
2023-04-13T12:31:17.179Z,99479.86
2023-04-13T12:33:49.462Z,99494.84
2023-04-13T12:36:22.345Z,99480.83
2023-04-13T12:38:54.403Z,99490.98
2023-04-13T12:41:26.776Z,99479.80
2023-04-13T12:43:58.623Z,99477.91
2023-04-13T12:46:31.039Z,99476.20
2023-04-13T12:49:03.707Z,99463.43
2023-04-13T12:51:36.311Z,99485.53
2023-04-13T12:54:10.252Z,99479.06
2023-04-13T12:56:43.212Z,99483.21
2023-04-13T12:59:15.444Z,99474.00
2023-04-13T13:01:47.762Z,99489.69
2023-04-13T13:04:19.899Z,99487.48
2023-04-13T13:06:52.596Z,99467.92
2023-04-13T13:09:25.204Z,99481.84
2023-04-13T13:11:58.301Z,99475.25
2023-04-13T13:14:30.513Z,99472.19
2023-04-13T13:17:04.091Z,99472.59
2023-04-13T13:19:36.683Z,99478.23
2023-04-13T13:22:09.324Z,99467.37
2023-04-13T13:24:41.753Z,99469.45
2023-04-13T13:27:48.696Z,99464.36
2023-04-13T13:29:48.032Z,99457.27
2023-04-13T13:32:20.440Z,99460.73
2023-04-13T13:34:52.692Z,99471.45
2023-04-13T13:37:24.922Z,99472.23
2023-04-13T13:39:56.783Z,99465.38
2023-04-13T13:42:37.487Z,99478.39
2023-04-13T13:45:02.977Z,99474.07
2023-04-13T13:47:35.340Z,99486.89
2023-04-13T13:50:08.932Z,99488.07
2023-04-13T13:52:55.327Z,99486.66
2023-04-13T13:55:18.800Z,99496.66
2023-04-13T13:57:50.901Z,99495.56
2023-04-13T14:00:23.856Z,99493.04
2023-04-13T14:02:56.190Z,99498.75
2023-04-13T14:05:28.426Z,99507.91
2023-04-13T14:08:01.715Z,99508.97
2023-04-13T14:10:34.461Z,99518.88
2023-04-13T14:13:06.625Z,99504.42
2023-04-13T14:15:38.755Z,99504.30
2023-04-13T14:18:11.749Z,99503.19
2023-04-13T14:20:44.048Z,99514.16
2023-04-13T14:23:16.472Z,99507.00
2023-04-13T14:25:48.390Z,99518.62
2023-04-13T14:28:21.442Z,99507.87
2023-04-13T14:30:53.739Z,99502.92
2023-04-13T14:33:26.566Z,99502.51
2023-04-13T14:35:58.739Z,99500.01
2023-04-13T14:38:31.297Z,99509.48
2023-04-13T14:41:03.669Z,99492.36
2023-04-13T14:43:35.839Z,99496.55
2023-04-13T14:46:09.057Z,99494.03
2023-04-13T14:48:41.505Z,99519.03
2023-04-13T14:51:19.596Z,99517.88
2023-04-13T14:53:54.954Z,99515.53
2023-04-13T14:56:27.389Z,99513.88
2023-04-13T14:58:59.980Z,99518.44
2023-04-13T15:01:32.313Z,99520.16
2023-04-13T15:04:04.883Z,99533.45
2023-04-13T15:06:38.613Z,99525.83
2023-04-13T15:09:12.953Z,99528.84
2023-04-13T15:11:44.790Z,99531.90
2023-04-13T15:14:16.964Z,99551.11
2023-04-13T15:16:49.133Z,99547.48
2023-04-13T15:19:21.706Z,99543.80
2023-04-13T15:21:54.381Z,99539.42
2023-04-13T15:24:27.070Z,99550.56
2023-04-13T15:26:59.922Z,99553.31
2023-04-13T15:29:32.370Z,99572.50
2023-04-13T15:32:04.869Z,99562.06
2023-04-13T15:34:37.618Z,99559.76
2023-04-13T15:37:09.725Z,99580.20
2023-04-13T15:39:41.816Z,99588.59
2023-04-13T15:42:14.757Z,99593.82
2023-04-13T15:44:47.073Z,99601.00
2023-04-13T15:47:19.120Z,99580.78
2023-04-13T15:49:51.325Z,99585.30
2023-04-13T15:52:23.854Z,99584.47
2023-04-13T15:54:56.269Z,99584.98
2023-04-13T15:57:28.570Z,99596.70
2023-04-13T16:00:01.220Z,99596.94
2023-04-13T16:02:35.412Z,99589.11
2023-04-13T16:05:08.085Z,99599.70
2023-04-13T16:07:40.509Z,99593.95
2023-04-13T16:10:19.506Z,99609.72
2023-04-13T16:12:53.645Z,99609.80
2023-04-13T16:15:26.547Z,99612.69
2023-04-13T16:17:58.801Z,99616.16
2023-04-13T16:20:31.055Z,99624.91
2023-04-13T16:23:05.170Z,99629.38
2023-04-13T16:25:37.926Z,99641.55
2023-04-13T16:28:10.805Z,99641.55
2023-04-13T16:30:43.176Z,99649.45
2023-04-13T16:33:15.589Z,99652.14
2023-04-13T16:35:47.598Z,99659.06
2023-04-13T16:38:19.812Z,99653.48
2023-04-13T16:40:51.983Z,99655.08
2023-04-13T16:43:24.266Z,99663.56
2023-04-13T16:45:56.596Z,99669.50
2023-04-13T16:48:30.135Z,99683.13
2023-04-13T16:51:03.433Z,99688.95
2023-04-13T16:53:35.781Z,99691.87
2023-04-13T16:56:08.218Z,99696.73
2023-04-13T16:58:40.416Z,99701.39
2023-04-13T17:01:12.644Z,99694.63
2023-04-13T17:03:44.913Z,99701.59
2023-04-13T17:06:16.867Z,99708.89
2023-04-13T17:08:49.615Z,99721.44
2023-04-13T17:11:22.026Z,99700.55
2023-04-13T17:13:54.220Z,99710.55
2023-04-13T17:16:28.188Z,99725.67
2023-04-13T17:19:00.667Z,99715.31
2023-04-13T17:21:33.236Z,99726.20
2023-04-13T17:24:05.800Z,99724.61
2023-04-13T17:26:39.133Z,99735.56
2023-04-13T17:29:11.629Z,99729.95
2023-04-13T17:31:44.675Z,99726.25
2023-04-13T17:34:17.177Z,99733.59
2023-04-13T17:36:49.410Z,99735.50
2023-04-13T17:39:21.616Z,99731.47
2023-04-13T17:41:53.635Z,99733.58
2023-04-13T17:44:25.845Z,99749.59
2023-04-13T17:46:57.793Z,99741.05
2023-04-13T17:49:30.143Z,99746.70
2023-04-13T17:52:02.460Z,99739.74
2023-04-13T17:54:35.181Z,99749.44
2023-04-13T17:57:07.922Z,99736.47
2023-04-13T17:59:41.954Z,99745.42
2023-04-13T18:02:13.971Z,99749.11
2023-04-13T18:04:46.735Z,99752.58
2023-04-13T18:07:20.564Z,99746.57
2023-04-13T18:09:52.626Z,99767.85
2023-04-13T18:12:24.595Z,99768.89
2023-04-13T18:14:58.809Z,99764.86
2023-04-13T18:17:32.635Z,99759.77
2023-04-13T18:20:04.941Z,99769.73
2023-04-13T18:22:37.400Z,99768.41
2023-04-13T18:25:09.958Z,99771.27
2023-04-13T18:27:42.924Z,99771.64
2023-04-13T18:30:17.143Z,99771.81
2023-04-13T18:32:53.103Z,99787.84
2023-04-13T18:35:26.139Z,99784.62
2023-04-13T18:37:58.867Z,99785.02
2023-04-13T18:40:31.249Z,99789.64
2023-04-13T18:43:03.450Z,99797.81
2023-04-13T18:45:35.879Z,99788.48
2023-04-13T18:48:10.145Z,99785.20
2023-04-13T18:50:42.333Z,99790.74
2023-04-13T18:53:14.915Z,99792.07
2023-04-13T18:55:51.294Z,99786.63
2023-04-13T18:58:23.422Z,99793.31
2023-04-13T19:00:56.091Z,99799.13
2023-04-13T19:03:28.912Z,99802.41
2023-04-13T19:06:01.206Z,99798.74
2023-04-13T19:08:33.716Z,99788.38
2023-04-13T19:11:06.392Z,99801.68
2023-04-13T19:13:38.663Z,99799.13
2023-04-13T19:16:11.429Z,99802.89
2023-04-13T19:18:43.745Z,99802.98
2023-04-13T19:21:15.909Z,99799.80
2023-04-13T19:23:48.692Z,99799.97
2023-04-13T19:26:20.789Z,99800.92
2023-04-13T19:28:56.153Z,99801.75
2023-04-13T19:31:28.742Z,99807.58
2023-04-13T19:34:01.478Z,99815.66
2023-04-13T19:36:36.062Z,99830.23
2023-04-13T19:39:10.136Z,99814.12
2023-04-13T19:41:43.014Z,99810.45
2023-04-13T19:44:16.971Z,99814.54
2023-04-13T19:46:49.152Z,99804.81
2023-04-13T19:49:21.392Z,99812.41
2023-04-13T19:51:53.473Z,99812.58
2023-04-13T19:54:25.519Z,99804.61
2023-04-13T19:56:57.496Z,99817.61
2023-04-13T19:59:29.444Z,99820.14
2023-04-13T20:02:01.621Z,99834.80
2023-04-13T20:04:35.047Z,99832.17
2023-04-13T20:07:07.232Z,99848.66
2023-04-13T20:09:39.413Z,99840.48
2023-04-13T20:12:12.298Z,99861.30
2023-04-13T20:14:45.863Z,99847.80
2023-04-13T20:17:17.715Z,99849.11
2023-04-13T20:19:50.048Z,99845.88
2023-04-13T20:22:22.626Z,99857.78
2023-04-13T20:24:54.689Z,99843.34
2023-04-13T20:27:27.492Z,99849.02
2023-04-13T20:29:59.949Z,99852.10
2023-04-13T20:32:34.199Z,99855.16
2023-04-13T20:35:06.790Z,99861.47
2023-04-13T20:37:38.798Z,99860.16
2023-04-13T20:40:10.850Z,99853.44
2023-04-13T20:42:44.356Z,99851.20
2023-04-13T20:45:17.740Z,99857.51
2023-04-13T20:47:51.080Z,99863.89
2023-04-13T20:50:25.653Z,99858.03
2023-04-13T20:52:57.010Z,99872.39
2023-04-13T20:55:29.118Z,99870.91
2023-04-13T20:58:01.814Z,99877.44
2023-04-13T21:00:34.713Z,99879.40
2023-04-13T21:03:08.747Z,99879.63
2023-04-13T21:05:41.410Z,99881.75
2023-04-13T21:08:13.336Z,99879.33
2023-04-13T21:10:47.132Z,99888.30
2023-04-13T21:13:19.480Z,99891.20
2023-04-13T21:15:51.932Z,99890.41
2023-04-13T21:18:24.011Z,99893.31
2023-04-13T21:20:56.348Z,99900.41
2023-04-13T21:23:28.687Z,99903.15
2023-04-13T21:26:00.832Z,99899.95
2023-04-13T21:28:32.938Z,99907.99
2023-04-13T21:31:04.887Z,99896.94
2023-04-13T21:33:36.833Z,99895.44
2023-04-13T21:38:46.509Z,99896.61
2023-04-13T21:41:20.084Z,99898.58
2023-04-13T21:43:52.274Z,99899.84
2023-04-13T21:46:25.270Z,99897.41
2023-04-13T21:48:57.588Z,99904.56
2023-04-13T21:51:29.631Z,99896.95
2023-04-13T21:54:01.651Z,99903.38
2023-04-13T21:56:35.227Z,99908.66
2023-04-13T21:59:07.699Z,99913.16
2023-04-13T22:01:39.926Z,99909.87
2023-04-13T22:04:12.939Z,99912.77
2023-04-13T22:06:45.329Z,99912.88
2023-04-13T22:09:17.647Z,99920.00
2023-04-13T22:11:49.707Z,99913.14
2023-04-13T22:14:23.403Z,99926.27
2023-04-13T22:16:55.412Z,99915.06
2023-04-13T22:19:27.642Z,99913.31
2023-04-13T22:21:59.800Z,99916.90
2023-04-13T22:24:31.843Z,99918.70
2023-04-13T22:27:06.912Z,99925.88
2023-04-13T22:29:38.811Z,99914.66
2023-04-13T22:32:11.114Z,99908.63
2023-04-13T22:34:43.249Z,99912.38
2023-04-13T22:37:17.488Z,99915.91
2023-04-13T22:39:49.716Z,99904.80
2023-04-13T22:42:22.134Z,99923.19
2023-04-13T22:44:54.221Z,99910.33
2023-04-13T22:47:26.486Z,99916.64
2023-04-13T22:50:00.821Z,99907.27
2023-04-13T22:52:32.867Z,99916.23
2023-04-13T22:55:05.049Z,99925.09
2023-04-13T22:57:37.084Z,99921.03
2023-04-13T23:00:09.896Z,99923.85
2023-04-13T23:02:42.495Z,99915.40
2023-04-13T23:05:15.000Z,99919.03
2023-04-13T23:07:46.942Z,99920.00
2023-04-13T23:10:19.427Z,99919.32
2023-04-13T23:12:52.467Z,99932.63
2023-04-13T23:15:24.572Z,99946.82
2023-04-13T23:18:01.139Z,99944.41
2023-04-13T23:20:33.711Z,99944.64
2023-04-13T23:23:05.744Z,99952.66
2023-04-13T23:25:38.076Z,99937.28
2023-04-13T23:28:10.035Z,99951.38
2023-04-13T23:30:42.202Z,99942.23
2023-04-13T23:33:14.309Z,99950.23
2023-04-13T23:35:53.866Z,99947.85
2023-04-13T23:38:25.961Z,99949.77
2023-04-13T23:40:58.230Z,99963.94
2023-04-13T23:43:30.215Z,99968.54
2023-04-13T23:46:02.407Z,99974.80
2023-04-13T23:48:34.696Z,99975.05
2023-04-13T23:51:07.092Z,99974.34
2023-04-13T23:53:39.208Z,99978.82
2023-04-13T23:56:11.381Z,99976.30
2023-04-13T23:58:43.390Z,99976.39
